Aviation Digital Data Service (ADDS)

Output produced by METARs form (1027 UTC 26 September 2016)
found at http://www.aviationweather.gov/adds/metars/
 
KAOO 260953Z AUTO 00000KT 10SM OVC010 12/11 A3011 RMK AO2 SLP192 T01220106
KAOO 260908Z AUTO 00000KT 10SM OVC014 11/09 A3012 RMK AO2 T01110089
KAOO 260853Z AUTO 00000KT 10SM OVC015 11/08 A3012 RMK AO2 SLP197 T01060083 55010
KAOO 260828Z AUTO 31003KT 10SM BKN013 10/08 A3012 RMK AO2 T01000078
KAOO 260753Z AUTO 19003KT 10SM CLR 11/08 A3012 RMK AO2 SLP196 T01110083
KAOO 260653Z AUTO 00000KT 10SM CLR 11/08 A3014 RMK AO2 SLP203 T01110078
KAOO 260553Z AUTO 06004KT 10SM CLR 10/07 A3015 RMK AO2 SLP208 T01000072 10161 20100 58004
KAOO 260453Z AUTO 00000KT 10SM CLR 12/07 A3016 RMK AO2 SLP210 T01170072 402220061
KAOO 260353Z AUTO 00000KT 10SM CLR 13/07 A3017 RMK AO2 SLP213 T01330067
KAOO 260253Z AUTO 00000KT 10SM CLR 15/07 A3017 RMK AO2 SLP213 T01500067 50006
KAOO 260153Z AUTO 00000KT 10SM CLR 14/06 A3018 RMK AO2 SLP217 T01390061
KAOO 260053Z AUTO 00000KT 10SM CLR 14/07 A3017 RMK AO2 SLP217 T01390067
KAOO 252353Z AUTO VRB04KT 10SM CLR 16/07 A3015 RMK AO2 SLP210 T01560067 10222 20150 53003
KAOO 252253Z AUTO 05004KT 10SM CLR 18/07 A3014 RMK AO2 SLP207 T01830067
KAOO 252153Z AUTO 07003KT 10SM CLR 21/04 A3014 RMK AO2 SLP204 T02110044
KAOO 252053Z AUTO 00000KT 10SM CLR 22/04 A3014 RMK AO2 SLP205 T02170044 56018
KAOO 251953Z AUTO 10003KT 10SM CLR 21/04 A3015 RMK AO2 SLP208 T02110039
KAOO 251853Z AUTO VRB03KT 10SM CLR 21/05 A3017 RMK AO2 SLP214 T02060050
KAOO 251753Z AUTO 00000KT 10SM CLR 19/06 A3019 RMK AO2 SLP223 T01940061 10200 20089 56018
KAOO 251653Z AUTO 12004KT 10SM CLR 19/06 A3021 RMK AO2 SLP228 T01890056
KAOO 251553Z AUTO VRB03KT 10SM CLR 17/05 A3023 RMK AO2 SLP236 T01720050
KAOO 251453Z AUTO 09006KT 10SM CLR 16/05 A3025 RMK AO2 SLP242 T01560050 50002
KAOO 251353Z AUTO 06004KT 10SM CLR 14/07 A3025 RMK AO2 SLP244 T01390067
KAOO 251253Z AUTO 00000KT 10SM CLR 11/08 A3024 RMK AO2 SLP241 T01110078
KAOO 251153Z AUTO 00000KT 10SM CLR 09/08 A3024 RMK AO2 SLP241 T00890078 10111 20061 51006
KAOO 251053Z AUTO 00000KT 10SM CLR 06/06 A3024 RMK AO2 SLP241 T00610061
KAOO 250953Z AUTO 00000KT 10SM CLR 07/07 A3023 RMK AO2 SLP236 T00720067
KAOO 250853Z AUTO 08004KT 10SM CLR 07/07 A3022 RMK AO2 SLP234 T00720072 53002
KAOO 250753Z AUTO 08004KT 10SM CLR 08/07 A3021 RMK AO2 SLP229 T00830072
KAOO 250653Z AUTO 00000KT 10SM CLR 09/08 A3021 RMK AO2 SLP231 T00940078
KAOO 250553Z AUTO 00000KT 10SM CLR 11/08 A3022 RMK AO2 SLP232 T01060078 10172 20100 51008
KAOO 250453Z AUTO 00000KT 10SM CLR 12/07 A3021 RMK AO2 SLP229 T01170072 402170111
KAOO 250353Z AUTO 04005KT 10SM CLR 13/08 A3021 RMK AO2 SLP228 T01280078
KAOO 250253Z AUTO 03007KT 10SM CLR 13/09 A3019 RMK AO2 SLP223 T01280089 51012
KAOO 250153Z AUTO 00000KT 10SM CLR 13/09 A3019 RMK AO2 SLP222 T01280094
KAOO 250053Z AUTO 00000KT 10SM CLR 15/09 A3018 RMK AO2 SLP216 T01500094
KAOO 242353Z AUTO 00000KT 10SM CLR 17/09 A3016 RMK AO2 SLP208 T01720089 10217 20161 51006
KAOO 242253Z AUTO 36005KT 10SM CLR 19/09 A3015 RMK AO2 SLP205 T01890094